createdAt,value
2023-11-07T00:06:40.835Z,7.22
2023-11-07T00:09:07.695Z,7.26
2023-11-07T00:11:34.468Z,7.28
2023-11-07T00:14:04.730Z,7.25
2023-11-07T00:16:32.511Z,7.31
2023-11-07T00:19:00.334Z,7.33
2023-11-07T00:21:28.000Z,7.28
2023-11-07T00:23:56.873Z,7.18
2023-11-07T00:29:19.972Z,6.99
2023-11-07T00:31:46.679Z,6.94
2023-11-07T00:34:14.343Z,6.97
2023-11-07T00:36:41.132Z,7.00
2023-11-07T00:39:09.218Z,6.97
2023-11-07T00:41:36.335Z,7.01
2023-11-07T00:50:33.008Z,6.94
2023-11-07T00:52:59.796Z,6.93
2023-11-07T00:55:27.939Z,7.01
2023-11-07T00:57:54.672Z,7.00
2023-11-07T01:00:21.752Z,6.97
2023-11-07T01:02:49.327Z,7.00
2023-11-07T01:05:16.372Z,6.91
2023-11-07T01:07:43.621Z,6.77
2023-11-07T01:10:10.836Z,6.68
2023-11-07T01:12:39.000Z,6.61
2023-11-07T01:15:08.798Z,6.68
2023-11-07T01:17:36.112Z,6.63
2023-11-07T01:20:03.392Z,6.63
2023-11-07T01:22:34.228Z,6.59
2023-11-07T01:25:01.154Z,6.50
2023-11-07T01:27:27.899Z,6.49
2023-11-07T01:29:56.996Z,6.44
2023-11-07T01:32:24.677Z,6.37
2023-11-07T01:34:54.200Z,6.33
2023-11-07T01:37:23.463Z,6.27
2023-11-07T01:39:56.842Z,6.21
2023-11-07T01:42:26.141Z,6.17
2023-11-07T01:44:53.622Z,6.11
2023-11-07T01:47:22.918Z,6.05
2023-11-07T01:50:05.013Z,6.01
2023-11-07T01:53:05.475Z,5.93
2023-11-07T01:55:41.965Z,5.88
2023-11-07T01:58:08.796Z,5.85
2023-11-07T02:00:39.544Z,5.81
2023-11-07T02:03:11.537Z,5.77
2023-11-07T02:05:42.351Z,5.74
2023-11-07T02:08:11.852Z,5.69
2023-11-07T02:10:42.013Z,5.70
2023-11-07T02:13:08.693Z,5.76
2023-11-07T02:15:36.676Z,5.83
2023-11-07T02:18:03.996Z,5.89
2023-11-07T02:20:47.719Z,6.01
2023-11-07T02:23:37.806Z,6.12
2023-11-07T02:26:05.352Z,6.24
2023-11-07T02:28:50.838Z,6.35
2023-11-07T02:31:17.799Z,6.41
2023-11-07T02:33:47.549Z,6.49
2023-11-07T02:36:17.869Z,6.49
2023-11-07T02:38:47.163Z,6.48
2023-11-07T02:41:15.944Z,6.51
2023-11-07T02:43:47.089Z,6.54
2023-11-07T02:46:15.440Z,6.57
2023-11-07T02:48:42.314Z,6.60
2023-11-07T02:51:19.248Z,6.60
2023-11-07T02:53:47.435Z,6.59
2023-11-07T02:56:14.493Z,6.60
2023-11-07T02:58:41.137Z,6.60
2023-11-07T03:01:07.820Z,6.66
2023-11-07T03:03:34.791Z,6.69
2023-11-07T03:06:03.313Z,6.74
2023-11-07T03:08:30.145Z,6.77
2023-11-07T03:10:58.566Z,6.80
2023-11-07T03:13:27.660Z,6.89
2023-11-07T03:15:54.389Z,6.94
2023-11-07T03:18:24.132Z,6.97
2023-11-07T03:20:51.119Z,7.02
2023-11-07T03:23:17.897Z,7.03
2023-11-07T03:25:44.603Z,7.06
2023-11-07T03:28:16.270Z,7.06
2023-11-07T03:30:42.993Z,7.01
2023-11-07T03:33:09.843Z,6.96
2023-11-07T03:35:36.701Z,6.89
2023-11-07T03:38:03.840Z,6.80
2023-11-07T03:40:30.741Z,6.72
2023-11-07T03:42:59.152Z,6.65
2023-11-07T03:45:27.271Z,6.59
2023-11-07T03:47:54.078Z,6.54
2023-11-07T03:50:20.947Z,6.44
2023-11-07T03:52:47.611Z,6.40
2023-11-07T03:55:14.383Z,6.35
2023-11-07T03:57:41.245Z,6.32
2023-11-07T04:00:09.412Z,6.29
2023-11-07T04:02:37.717Z,6.26
2023-11-07T04:05:06.296Z,6.27
2023-11-07T04:07:33.043Z,6.28
2023-11-07T04:09:59.772Z,6.30
2023-11-07T04:12:26.463Z,6.32
2023-11-07T04:14:53.151Z,6.36
2023-11-07T04:17:32.264Z,6.36
2023-11-07T04:20:00.417Z,6.34
2023-11-07T04:22:27.280Z,6.30
2023-11-07T04:24:54.065Z,6.27
2023-11-07T04:27:20.782Z,6.26
2023-11-07T04:29:47.492Z,6.25
2023-11-07T04:32:15.375Z,6.27
2023-11-07T04:34:42.047Z,6.37
2023-11-07T04:37:33.981Z,6.40
2023-11-07T04:40:00.807Z,6.50
2023-11-07T04:43:06.877Z,6.67
2023-11-07T04:45:33.686Z,6.75
2023-11-07T04:48:01.304Z,6.77
2023-11-07T04:50:28.167Z,6.83
2023-11-07T04:52:56.714Z,6.83
2023-11-07T04:55:23.681Z,6.84
2023-11-07T04:58:10.054Z,6.90
2023-11-07T05:00:36.681Z,6.89
2023-11-07T05:03:03.623Z,6.88
2023-11-07T05:05:59.133Z,6.87
2023-11-07T05:08:27.251Z,6.88
2023-11-07T05:10:54.024Z,6.88
2023-11-07T05:13:22.464Z,6.91
2023-11-07T05:15:49.241Z,6.92
2023-11-07T05:18:16.344Z,6.95
2023-11-07T05:20:44.805Z,6.98
2023-11-07T05:23:12.927Z,7.00
2023-11-07T05:25:41.259Z,7.00
2023-11-07T05:28:11.489Z,6.98
2023-11-07T05:30:38.546Z,6.97
2023-11-07T05:33:05.349Z,6.99
2023-11-07T05:35:33.047Z,6.99
2023-11-07T05:38:00.493Z,7.08
2023-11-07T05:40:27.190Z,7.05
2023-11-07T05:42:55.295Z,7.05
2023-11-07T05:45:22.079Z,7.10
2023-11-07T05:47:48.934Z,7.13
2023-11-07T05:50:15.658Z,7.27
2023-11-07T05:52:42.433Z,7.35
2023-11-07T05:55:09.800Z,7.32
2023-11-07T05:57:37.298Z,7.44
2023-11-07T06:00:06.043Z,7.38
2023-11-07T06:02:32.837Z,7.33
2023-11-07T06:05:04.213Z,7.32
2023-11-07T06:07:31.770Z,7.50
2023-11-07T06:09:58.610Z,7.57
2023-11-07T06:12:25.521Z,7.56
2023-11-07T06:14:52.348Z,7.63
2023-11-07T06:17:20.739Z,7.78
2023-11-07T06:19:48.211Z,7.85
2023-11-07T06:22:15.222Z,7.90
2023-11-07T06:24:42.281Z,7.80
2023-11-07T06:27:12.736Z,7.75
2023-11-07T06:29:41.874Z,7.74
2023-11-07T06:32:11.274Z,7.82
2023-11-07T06:34:42.469Z,7.87
2023-11-07T06:37:41.951Z,7.85
2023-11-07T06:40:19.261Z,7.82
2023-11-07T06:42:46.331Z,7.78
2023-11-07T06:45:21.142Z,7.81
2023-11-07T06:47:48.394Z,7.79
2023-11-07T06:50:16.904Z,7.74
2023-11-07T06:52:50.682Z,7.85
2023-11-07T06:55:17.657Z,7.97
2023-11-07T06:57:44.735Z,7.95
2023-11-07T07:00:12.336Z,8.10
2023-11-07T07:02:41.082Z,8.13
2023-11-07T07:05:08.686Z,8.11
2023-11-07T07:07:39.642Z,8.08
2023-11-07T07:10:07.096Z,8.05
2023-11-07T07:12:33.739Z,8.02
2023-11-07T07:15:00.455Z,8.06
2023-11-07T07:17:27.500Z,8.09
2023-11-07T07:20:04.126Z,8.03
2023-11-07T07:22:30.861Z,7.95
2023-11-07T07:24:59.281Z,7.96
2023-11-07T07:27:44.759Z,8.03
2023-11-07T07:30:25.133Z,7.99
2023-11-07T07:32:53.125Z,7.97
2023-11-07T07:35:20.272Z,8.04
2023-11-07T07:37:47.362Z,7.99
2023-11-07T07:40:18.936Z,7.97
2023-11-07T07:42:55.428Z,8.03
2023-11-07T07:45:38.893Z,8.09
2023-11-07T07:48:05.983Z,8.21
2023-11-07T07:50:42.353Z,8.31
2023-11-07T07:53:11.473Z,8.32
2023-11-07T07:55:39.795Z,8.36
2023-11-07T07:58:22.146Z,8.32
2023-11-07T08:00:52.274Z,8.28
2023-11-07T08:03:19.224Z,8.36
2023-11-07T08:05:50.474Z,8.34
2023-11-07T08:08:17.526Z,8.42
2023-11-07T08:10:46.012Z,8.48
2023-11-07T08:13:13.084Z,8.62
2023-11-07T08:15:40.214Z,8.68
2023-11-07T08:18:14.085Z,8.71
2023-11-07T08:20:41.060Z,8.81
2023-11-07T08:23:15.432Z,8.92
2023-11-07T08:25:46.329Z,8.97
2023-11-07T08:28:16.840Z,9.00
2023-11-07T08:30:46.100Z,8.89
2023-11-07T08:33:14.165Z,8.85
2023-11-07T08:35:41.179Z,8.72
2023-11-07T08:38:10.649Z,8.63
2023-11-07T08:40:37.593Z,8.59
2023-11-07T08:43:04.340Z,8.64
2023-11-07T08:45:36.718Z,8.72
2023-11-07T08:48:05.751Z,8.78
2023-11-07T08:50:32.999Z,8.90
2023-11-07T08:52:59.923Z,9.01
2023-11-07T08:55:28.113Z,9.15
2023-11-07T08:58:01.200Z,9.29
2023-11-07T09:00:28.282Z,9.30
2023-11-07T09:02:57.017Z,9.60
2023-11-07T09:05:26.542Z,9.64
2023-11-07T09:07:53.307Z,9.68
2023-11-07T09:10:20.776Z,9.64
2023-11-07T09:12:47.480Z,9.57
2023-11-07T09:15:32.297Z,9.55
2023-11-07T09:18:00.838Z,9.62
2023-11-07T09:20:27.718Z,9.84
2023-11-07T09:22:56.101Z,9.94
2023-11-07T09:25:23.447Z,10.18
2023-11-07T09:27:50.447Z,10.29
2023-11-07T09:30:19.284Z,10.55
2023-11-07T09:32:46.156Z,10.57
2023-11-07T09:35:14.818Z,10.73
2023-11-07T09:37:42.472Z,10.75
2023-11-07T09:40:26.663Z,10.61
2023-11-07T09:43:11.931Z,10.63
2023-11-07T09:45:56.353Z,10.69
2023-11-07T09:48:23.566Z,10.76
2023-11-07T09:50:53.897Z,10.76
2023-11-07T09:53:21.404Z,10.86
2023-11-07T09:55:48.311Z,11.04
2023-11-07T09:58:21.401Z,11.09
2023-11-07T10:00:51.356Z,11.14
2023-11-07T10:03:31.541Z,11.17
2023-11-07T10:06:00.216Z,11.43
2023-11-07T10:08:29.884Z,11.20
2023-11-07T10:11:10.839Z,11.24
2023-11-07T10:13:37.923Z,11.23
2023-11-07T10:16:16.135Z,11.27
2023-11-07T10:18:51.938Z,11.50
2023-11-07T10:21:30.961Z,11.56
2023-11-07T10:23:59.391Z,11.59
2023-11-07T10:26:26.311Z,11.62
2023-11-07T10:29:06.318Z,11.62
2023-11-07T10:31:32.974Z,11.68
2023-11-07T10:34:11.997Z,11.87
2023-11-07T10:36:44.162Z,11.86
2023-11-07T10:39:14.369Z,11.88
2023-11-07T10:41:41.182Z,11.64
2023-11-07T10:44:17.368Z,11.77
2023-11-07T10:46:49.752Z,11.65
2023-11-07T10:49:17.108Z,11.67
2023-11-07T10:51:47.845Z,11.65
2023-11-07T10:54:15.242Z,11.69
2023-11-07T10:56:42.389Z,11.68
2023-11-07T10:59:14.469Z,11.62
2023-11-07T11:01:42.156Z,11.61
2023-11-07T11:04:10.610Z,11.42
2023-11-07T11:06:38.343Z,11.28
2023-11-07T11:09:08.952Z,11.14
2023-11-07T11:11:35.977Z,11.14
2023-11-07T11:14:04.268Z,11.10
2023-11-07T11:16:32.143Z,11.06
2023-11-07T11:19:02.337Z,11.10
2023-11-07T11:21:34.112Z,11.19
2023-11-07T11:24:05.874Z,11.18
2023-11-07T11:26:38.663Z,11.16
2023-11-07T11:29:23.479Z,11.12
2023-11-07T11:31:51.160Z,11.19
2023-11-07T11:34:25.096Z,11.55
2023-11-07T11:36:58.098Z,11.70
2023-11-07T11:39:47.009Z,12.22
2023-11-07T11:42:16.335Z,12.29
2023-11-07T11:44:45.822Z,12.39
2023-11-07T11:47:45.983Z,12.48
2023-11-07T11:50:19.038Z,12.58
2023-11-07T11:52:46.201Z,12.69
2023-11-07T11:55:14.199Z,12.76
2023-11-07T11:58:15.559Z,12.93
2023-11-07T12:00:48.499Z,13.05
2023-11-07T12:03:16.301Z,12.96
2023-11-07T12:05:43.318Z,12.71
2023-11-07T12:08:33.801Z,12.57
2023-11-07T12:11:01.008Z,12.28
2023-11-07T12:13:30.632Z,12.30
2023-11-07T12:15:58.605Z,12.33
2023-11-07T12:18:41.445Z,12.44
2023-11-07T12:21:08.911Z,12.19
2023-11-07T12:23:35.875Z,12.29
2023-11-07T12:26:02.616Z,12.15
2023-11-07T12:28:32.742Z,12.21
2023-11-07T12:30:59.573Z,12.35
2023-11-07T12:33:26.452Z,12.42
2023-11-07T12:35:57.712Z,12.62
2023-11-07T12:38:24.950Z,12.77
2023-11-07T12:40:51.596Z,12.77
2023-11-07T12:43:19.364Z,12.95
2023-11-07T12:45:47.796Z,13.24
2023-11-07T12:48:15.087Z,13.16
2023-11-07T12:50:42.908Z,13.10
